createdAt,value
2023-02-27T05:23:14.163Z,100575.69
2023-02-27T05:26:37.935Z,100580.91
2023-02-27T05:29:48.828Z,100585.22
2023-02-27T05:33:02.272Z,100585.25
2023-02-27T05:36:16.070Z,100592.19
2023-02-27T05:39:38.632Z,100596.53
2023-02-27T05:42:47.523Z,100607.84
2023-02-27T05:45:53.442Z,100602.66
2023-02-27T05:49:07.987Z,100611.31
2023-02-27T05:52:15.076Z,100610.44
2023-02-27T05:55:24.240Z,100608.69
2023-02-27T05:58:32.932Z,100620.88
2023-02-27T06:01:36.030Z,100625.22
2023-02-27T06:04:41.145Z,100625.19
2023-02-27T06:07:43.913Z,100640.00
2023-02-27T06:10:46.923Z,100635.62
2023-02-27T06:13:49.703Z,100643.47
2023-02-27T06:16:52.741Z,100655.62
2023-02-27T06:19:55.439Z,100662.59
2023-02-27T06:22:58.558Z,100652.12
2023-02-27T06:26:01.190Z,100659.97
2023-02-27T06:29:04.142Z,100666.91
2023-02-27T06:32:07.302Z,100674.75
2023-02-27T06:35:10.359Z,100679.06
2023-02-27T06:38:12.924Z,100684.28
2023-02-27T06:41:15.933Z,100692.94
2023-02-27T06:44:19.604Z,100699.03
2023-02-27T06:47:22.533Z,100712.03
2023-02-27T06:50:25.253Z,100712.88
2023-02-27T06:53:28.274Z,100718.97
2023-02-27T06:56:30.915Z,100725.91
2023-02-27T06:59:33.939Z,100735.50
2023-02-27T07:02:36.907Z,100729.38
2023-02-27T07:05:42.004Z,100736.34
2023-02-27T07:09:01.294Z,100738.97
2023-02-27T07:12:20.124Z,100738.91
2023-02-27T07:15:22.974Z,100737.88
2023-02-27T07:18:25.739Z,100740.41
2023-02-27T07:21:30.038Z,100744.06
2023-02-27T07:31:55.637Z,100742.16
2023-02-27T07:34:58.551Z,100741.09
2023-02-27T07:38:01.167Z,100755.53
2023-02-27T07:41:04.350Z,100754.72
2023-02-27T07:44:08.608Z,100756.13
2023-02-27T07:47:11.526Z,100761.59
2023-02-27T07:50:14.195Z,100767.56
2023-02-27T07:53:17.117Z,100772.13
2023-02-27T07:56:19.911Z,100769.91
2023-02-27T07:59:23.169Z,100768.06
2023-02-27T08:02:26.133Z,100773.03
2023-02-27T08:05:29.093Z,100775.06
2023-02-27T08:08:31.794Z,100774.88
2023-02-27T08:11:34.916Z,100780.13
2023-02-27T08:14:37.686Z,100776.31
2023-02-27T08:17:41.091Z,100784.22
2023-02-27T08:20:43.726Z,100781.97
2023-02-27T08:23:46.526Z,100777.72
2023-02-27T08:26:49.283Z,100784.09
2023-02-27T08:29:52.066Z,100790.84
2023-02-27T08:32:55.823Z,100795.22
2023-02-27T08:35:59.177Z,100808.22
2023-02-27T08:39:01.834Z,100809.50
2023-02-27T08:49:41.618Z,100834.28
2023-02-27T08:52:45.067Z,100829.31
2023-02-27T08:55:52.152Z,100830.28
2023-02-27T08:59:07.684Z,100837.03
2023-02-27T09:02:10.929Z,100837.00
2023-02-27T09:05:13.863Z,100851.09
2023-02-27T09:08:16.564Z,100853.56
2023-02-27T09:11:19.457Z,100847.37
2023-02-27T09:14:22.275Z,100848.28
2023-02-27T09:17:28.126Z,100849.06
2023-02-27T09:24:17.123Z,100844.41
2023-02-27T09:27:23.895Z,100845.31
2023-02-27T09:30:27.204Z,100847.13
2023-02-27T09:37:15.988Z,100857.00
2023-02-27T09:40:30.162Z,100853.00
2023-02-27T09:43:53.905Z,100861.22
2023-02-27T09:46:57.063Z,100852.56
2023-02-27T09:50:03.951Z,100858.84
2023-02-27T09:53:27.242Z,100847.41
2023-02-27T09:56:39.856Z,100852.94
2023-02-27T10:00:07.180Z,100850.31
2023-02-27T10:03:33.638Z,100860.78
2023-02-27T10:06:40.636Z,100855.16
2023-02-27T10:09:51.907Z,100859.56
2023-02-27T10:13:10.788Z,100864.53
2023-02-27T10:16:19.442Z,100868.56
2023-02-27T10:19:33.296Z,100861.53
2023-02-27T10:22:43.136Z,100865.44
2023-02-27T10:25:50.702Z,100864.88
2023-02-27T10:28:53.954Z,100850.56
2023-02-27T10:32:04.832Z,100861.84
2023-02-27T10:35:21.652Z,100859.78
2023-02-27T10:38:40.298Z,100865.28
2023-02-27T10:41:45.417Z,100863.16
2023-02-27T10:44:53.587Z,100862.00
2023-02-27T10:47:56.228Z,100869.12
2023-02-27T10:51:20.858Z,100864.50
2023-02-27T10:54:25.203Z,100860.94
2023-02-27T10:57:33.612Z,100858.06
2023-02-27T11:00:48.101Z,100856.09
2023-02-27T11:03:56.719Z,100866.38
2023-02-27T11:07:01.735Z,100863.00
2023-02-27T11:10:13.744Z,100865.97
2023-02-27T11:13:21.832Z,100864.37
2023-02-27T11:16:25.575Z,100861.06
2023-02-27T11:19:39.213Z,100864.00
2023-02-27T11:22:42.060Z,100866.34
2023-02-27T11:25:45.290Z,100864.47
2023-02-27T11:29:08.395Z,100871.84
2023-02-27T11:32:14.669Z,100875.25
2023-02-27T11:35:32.753Z,100876.19
2023-02-27T11:38:35.645Z,100866.94
2023-02-27T11:41:44.725Z,100877.22
2023-02-27T11:44:56.604Z,100875.75
2023-02-27T11:48:20.480Z,100868.78
2023-02-27T11:51:54.401Z,100871.94
2023-02-27T11:55:05.928Z,100873.00
2023-02-27T11:58:15.131Z,100868.75
2023-02-27T12:01:33.853Z,100862.66
2023-02-27T12:04:36.700Z,100862.88
2023-02-27T12:07:47.623Z,100861.78
2023-02-27T12:18:28.220Z,100864.13
2023-02-27T12:29:12.875Z,100879.72
2023-02-27T12:32:58.132Z,100875.62
2023-02-27T12:36:03.561Z,100879.31
2023-02-27T12:39:30.228Z,100873.53
2023-02-27T12:42:42.550Z,100889.78
2023-02-27T12:46:02.594Z,100880.00
2023-02-27T12:49:18.274Z,100884.44
2023-02-27T12:52:54.047Z,100886.34
2023-02-27T13:03:54.345Z,100904.59
2023-02-27T13:07:13.338Z,100899.66
2023-02-27T13:17:48.604Z,100897.81
2023-02-27T13:21:08.221Z,100900.19
2023-02-27T13:24:13.774Z,100897.16
2023-02-27T13:27:35.945Z,100899.25
2023-02-27T13:30:44.136Z,100900.88
2023-02-27T13:34:16.997Z,100899.69
2023-02-27T13:37:19.912Z,100903.12
2023-02-27T13:40:29.020Z,100909.22
2023-02-27T13:43:51.146Z,100909.78
2023-02-27T13:46:54.844Z,100915.97
2023-02-27T13:50:03.358Z,100910.75
2023-02-27T13:53:16.282Z,100907.41
2023-02-27T13:56:22.608Z,100911.94
2023-02-27T13:59:36.588Z,100908.88
2023-02-27T14:02:57.868Z,100909.97
2023-02-27T14:06:04.504Z,100905.50
2023-02-27T14:09:15.056Z,100907.09
2023-02-27T14:12:46.171Z,100904.06
2023-02-27T14:15:52.756Z,100905.47
2023-02-27T14:18:58.619Z,100904.41
2023-02-27T14:22:11.281Z,100904.25
2023-02-27T14:25:22.012Z,100900.41
2023-02-27T14:28:30.603Z,100908.81
2023-02-27T14:31:40.756Z,100904.34
2023-02-27T14:34:43.540Z,100902.84
2023-02-27T14:37:47.086Z,100905.44
2023-02-27T14:41:08.098Z,100900.63
2023-02-27T14:44:21.501Z,100906.12
2023-02-27T14:47:30.779Z,100904.38
2023-02-27T14:50:38.813Z,100911.03
2023-02-27T14:53:41.655Z,100914.56
2023-02-27T14:56:54.570Z,100915.09
2023-02-27T14:59:57.326Z,100914.28
2023-02-27T15:03:01.010Z,100922.69
2023-02-27T15:06:13.363Z,100929.88
2023-02-27T15:09:24.019Z,100926.50
2023-02-27T15:12:28.130Z,100925.72
2023-02-27T15:15:31.909Z,100928.66
2023-02-27T15:18:34.643Z,100939.88
2023-02-27T15:21:44.410Z,100947.19
2023-02-27T15:24:50.536Z,100950.09
2023-02-27T15:27:57.780Z,100951.81
2023-02-27T15:31:00.498Z,100959.66
2023-02-27T15:34:04.137Z,100958.94
2023-02-27T15:37:18.410Z,100962.31
2023-02-27T15:40:26.924Z,100970.25
2023-02-27T15:43:30.867Z,100969.50
2023-02-27T15:46:33.989Z,100978.50
2023-02-27T15:49:38.246Z,100981.28
2023-02-27T15:52:52.937Z,100988.44
2023-02-27T15:56:02.749Z,100995.56
2023-02-27T15:59:19.356Z,101000.06
2023-02-27T16:02:29.973Z,100999.22
2023-02-27T16:05:39.255Z,100998.41
2023-02-27T16:08:48.057Z,101001.03
2023-02-27T16:12:12.480Z,101002.84
2023-02-27T16:15:31.141Z,101008.19
2023-02-27T16:18:48.376Z,101016.09
2023-02-27T16:22:14.607Z,101023.09
2023-02-27T16:25:20.419Z,101023.19
2023-02-27T16:28:23.162Z,101026.72
2023-02-27T16:31:30.970Z,101041.56
2023-02-27T16:34:45.165Z,101038.88
2023-02-27T16:37:50.304Z,101052.00
2023-02-27T16:40:53.005Z,101056.47
2023-02-27T16:43:56.388Z,101056.47
